createdAt,value
2022-11-14T00:01:21.308Z,7.40
2022-11-14T00:03:51.174Z,7.30
2022-11-14T00:06:18.956Z,7.30
2022-11-14T00:08:45.706Z,7.30
2022-11-14T00:11:22.857Z,7.30
2022-11-14T00:13:49.603Z,7.30
2022-11-14T00:16:16.365Z,7.30
2022-11-14T00:18:43.096Z,7.40
2022-11-14T00:21:09.903Z,7.30
2022-11-14T00:23:37.935Z,7.40
2022-11-14T00:26:04.658Z,7.40
2022-11-14T00:28:33.044Z,7.40
2022-11-14T00:30:59.838Z,7.40
2022-11-14T00:33:26.534Z,7.30
2022-11-14T00:35:56.849Z,7.40
2022-11-14T00:38:24.770Z,7.30
2022-11-14T00:40:51.673Z,7.30
2022-11-14T00:43:18.349Z,7.40
2022-11-14T00:45:45.831Z,7.40
2022-11-14T00:48:15.281Z,7.30
2022-11-14T00:50:43.714Z,7.40
2022-11-14T00:53:12.835Z,7.40
2022-11-14T00:55:40.102Z,7.40
2022-11-14T00:58:06.894Z,7.40
2022-11-14T01:00:34.427Z,7.40
2022-11-14T01:03:01.516Z,7.30
2022-11-14T01:05:28.366Z,7.30
2022-11-14T01:07:55.299Z,7.30
2022-11-14T01:10:22.787Z,7.30
2022-11-14T01:12:51.581Z,7.30
2022-11-14T01:15:18.318Z,7.20
2022-11-14T01:17:45.000Z,7.10
2022-11-14T01:20:11.763Z,7.10
2022-11-14T01:22:39.702Z,7.00
2022-11-14T01:25:07.980Z,7.10
2022-11-14T01:27:35.097Z,7.10
2022-11-14T01:30:01.853Z,7.00
2022-11-14T01:32:28.620Z,6.90
2022-11-14T01:34:55.457Z,7.00
2022-11-14T01:37:24.592Z,7.00
2022-11-14T01:39:51.304Z,7.00
2022-11-14T01:42:20.064Z,7.10
2022-11-14T01:44:49.996Z,7.10
2022-11-14T01:47:22.412Z,7.10
2022-11-14T01:49:54.536Z,6.90
2022-11-14T01:52:27.479Z,6.90
2022-11-14T01:54:57.673Z,6.80
2022-11-14T01:57:31.663Z,6.90
2022-11-14T02:00:06.114Z,7.00
2022-11-14T02:02:33.267Z,6.90
2022-11-14T02:05:06.557Z,6.90
2022-11-14T02:07:39.986Z,6.80
2022-11-14T02:10:17.256Z,6.90
2022-11-14T02:12:45.350Z,7.00
2022-11-14T02:15:13.304Z,6.90
2022-11-14T02:17:42.811Z,6.80
2022-11-14T02:20:19.483Z,6.90
2022-11-14T02:22:46.325Z,7.10
2022-11-14T02:25:19.503Z,6.90
2022-11-14T02:27:53.358Z,6.80
2022-11-14T02:30:23.609Z,6.90
2022-11-14T02:33:09.987Z,6.90
2022-11-14T02:35:38.556Z,6.90
2022-11-14T02:38:05.291Z,6.80
2022-11-14T02:40:33.375Z,6.80
2022-11-14T02:43:00.404Z,6.90
2022-11-14T02:45:27.659Z,6.90
2022-11-14T02:47:55.202Z,6.80
2022-11-14T02:50:23.412Z,6.80
2022-11-14T02:52:50.180Z,6.60
2022-11-14T02:55:17.007Z,6.70
2022-11-14T02:57:49.205Z,6.80
2022-11-14T03:00:17.444Z,6.60
2022-11-14T03:02:45.230Z,6.60
2022-11-14T03:05:12.983Z,6.40
2022-11-14T03:07:39.827Z,6.40
2022-11-14T03:10:07.467Z,6.40
2022-11-14T03:12:34.374Z,6.50
2022-11-14T03:15:01.323Z,6.70
2022-11-14T03:17:31.936Z,6.70
2022-11-14T03:20:00.368Z,6.70
2022-11-14T03:22:28.027Z,6.80
2022-11-14T03:24:54.971Z,6.50
2022-11-14T03:27:21.749Z,6.40
2022-11-14T03:29:49.699Z,6.40
2022-11-14T03:32:16.670Z,6.30
2022-11-14T03:34:43.480Z,6.50
2022-11-14T03:37:11.863Z,6.60
2022-11-14T03:39:38.754Z,6.60
2022-11-14T03:42:05.646Z,6.40
2022-11-14T03:44:33.913Z,6.50
2022-11-14T03:47:00.833Z,6.60
2022-11-14T03:49:27.563Z,6.50
2022-11-14T03:51:54.363Z,6.30
2022-11-14T03:54:21.203Z,6.30
2022-11-14T03:56:48.087Z,6.40
2022-11-14T03:59:15.298Z,6.30
2022-11-14T04:01:42.075Z,6.20
2022-11-14T04:04:09.179Z,6.30
2022-11-14T04:06:36.119Z,6.10
2022-11-14T04:09:02.994Z,6.10
2022-11-14T04:11:32.249Z,6.10
2022-11-14T04:13:58.996Z,6.20
2022-11-14T04:16:25.749Z,6.10
2022-11-14T04:18:52.612Z,6.00
2022-11-14T04:21:19.714Z,6.10
2022-11-14T04:23:46.665Z,6.20
2022-11-14T04:26:13.442Z,6.20
2022-11-14T04:28:40.259Z,6.20
2022-11-14T04:31:07.217Z,6.20
2022-11-14T04:33:34.165Z,6.30
2022-11-14T04:36:01.014Z,6.20
2022-11-14T04:38:29.621Z,6.20
2022-11-14T04:40:58.042Z,6.20
2022-11-14T04:43:24.761Z,6.20
2022-11-14T04:45:51.709Z,6.20
2022-11-14T04:48:20.128Z,6.10
2022-11-14T04:50:47.132Z,6.00
2022-11-14T04:53:13.968Z,6.00
2022-11-14T04:55:40.901Z,6.20
2022-11-14T04:58:07.721Z,6.30
2022-11-14T05:00:34.646Z,6.30
2022-11-14T05:03:01.527Z,6.30
2022-11-14T05:05:28.927Z,6.20
2022-11-14T05:07:55.701Z,6.20
2022-11-14T05:10:22.449Z,6.20
2022-11-14T05:12:49.263Z,6.10
2022-11-14T05:15:16.178Z,6.10
2022-11-14T05:17:43.010Z,6.10
2022-11-14T05:20:10.839Z,6.20
2022-11-14T05:22:37.787Z,6.10
2022-11-14T05:25:05.847Z,6.10
2022-11-14T05:27:32.527Z,6.10
2022-11-14T05:29:59.636Z,6.20
2022-11-14T05:32:27.575Z,6.20
2022-11-14T05:34:54.464Z,6.20
2022-11-14T05:37:21.283Z,6.30
2022-11-14T05:39:48.091Z,6.30
2022-11-14T05:42:14.953Z,6.10
2022-11-14T05:44:42.292Z,6.20
2022-11-14T05:47:08.970Z,6.10
2022-11-14T05:49:35.716Z,6.10
2022-11-14T05:52:02.779Z,6.10
2022-11-14T05:54:29.620Z,6.10
2022-11-14T05:56:56.465Z,6.10
2022-11-14T05:59:23.592Z,6.30
2022-11-14T06:01:51.014Z,6.30
2022-11-14T06:04:17.928Z,6.20
2022-11-14T06:06:44.912Z,6.20
2022-11-14T06:09:11.782Z,6.20
2022-11-14T06:11:38.894Z,6.20
2022-11-14T06:14:10.572Z,6.10
2022-11-14T06:16:37.821Z,6.10
2022-11-14T06:19:05.681Z,6.10
2022-11-14T06:21:32.459Z,6.20
2022-11-14T06:23:59.596Z,6.40
2022-11-14T06:26:31.700Z,6.40
2022-11-14T06:28:59.804Z,6.30
2022-11-14T06:31:27.254Z,6.30
2022-11-14T06:33:54.570Z,6.40
2022-11-14T06:36:21.467Z,6.40
2022-11-14T06:38:49.436Z,6.30
2022-11-14T06:41:18.582Z,6.30
2022-11-14T06:43:48.426Z,6.30
2022-11-14T06:46:19.254Z,6.30
2022-11-14T06:48:51.578Z,6.20
2022-11-14T06:51:18.816Z,6.30
2022-11-14T06:53:45.894Z,6.10
2022-11-14T06:56:15.100Z,6.20
2022-11-14T06:58:47.704Z,6.30
2022-11-14T07:01:20.071Z,6.40
2022-11-14T07:03:47.124Z,6.40
2022-11-14T07:06:17.094Z,6.30
2022-11-14T07:08:44.154Z,6.20
2022-11-14T07:11:23.056Z,6.20
2022-11-14T07:13:54.902Z,6.30
2022-11-14T07:16:26.360Z,6.20
2022-11-14T07:18:53.214Z,6.30
2022-11-14T07:21:19.940Z,6.20
2022-11-14T07:23:46.800Z,6.30
2022-11-14T07:26:13.842Z,6.20
2022-11-14T07:28:47.015Z,6.10
2022-11-14T07:31:19.579Z,6.20
2022-11-14T07:33:47.958Z,6.30
2022-11-14T07:36:17.514Z,6.40
2022-11-14T07:38:44.648Z,6.50
2022-11-14T07:41:14.528Z,6.60
2022-11-14T07:43:42.042Z,6.50
2022-11-14T07:46:12.521Z,6.50
2022-11-14T07:48:39.427Z,6.50
2022-11-14T07:51:07.832Z,6.60
2022-11-14T07:53:34.622Z,6.60
2022-11-14T07:56:06.354Z,6.50
2022-11-14T07:58:36.132Z,6.50
2022-11-14T08:01:04.969Z,6.50
2022-11-14T08:03:32.466Z,6.60
2022-11-14T08:06:04.157Z,6.60
2022-11-14T08:08:31.634Z,6.50
2022-11-14T08:10:59.688Z,6.50
2022-11-14T08:13:32.687Z,6.60
2022-11-14T08:16:07.789Z,6.50
2022-11-14T08:18:37.781Z,6.50
2022-11-14T08:21:05.640Z,6.60
2022-11-14T08:23:32.687Z,6.50
2022-11-14T08:26:00.218Z,6.60
2022-11-14T08:28:27.711Z,6.60
2022-11-14T08:31:01.107Z,6.60
2022-11-14T08:33:28.100Z,6.60
2022-11-14T08:35:54.827Z,6.80
2022-11-14T08:38:21.647Z,6.70
2022-11-14T08:40:49.973Z,6.70
2022-11-14T08:43:16.747Z,6.70
2022-11-14T08:45:44.022Z,6.70
2022-11-14T08:48:11.446Z,6.90
2022-11-14T08:50:38.132Z,6.90
2022-11-14T08:53:04.927Z,7.00
2022-11-14T08:55:31.686Z,6.90
2022-11-14T08:57:58.453Z,6.80
2022-11-14T09:00:27.058Z,6.90
2022-11-14T09:02:53.988Z,6.90
2022-11-14T09:05:22.891Z,6.90
2022-11-14T09:07:50.074Z,6.80
2022-11-14T09:10:16.918Z,6.90
2022-11-14T09:12:43.865Z,6.80
2022-11-14T09:15:11.021Z,6.90
2022-11-14T09:17:38.683Z,6.90
2022-11-14T09:20:06.614Z,6.90
2022-11-14T09:22:33.507Z,6.80
2022-11-14T09:25:01.174Z,6.90
2022-11-14T09:27:29.913Z,7.00
2022-11-14T09:29:56.875Z,7.10
2022-11-14T09:32:24.738Z,7.10
2022-11-14T09:34:51.608Z,7.10
2022-11-14T09:37:18.549Z,7.20
2022-11-14T09:39:49.212Z,7.20
2022-11-14T09:42:34.705Z,7.10
2022-11-14T09:45:06.540Z,7.20
2022-11-14T09:47:41.715Z,7.10
2022-11-14T09:50:24.412Z,7.00
2022-11-14T09:52:59.965Z,7.00
2022-11-14T09:55:36.916Z,7.10
2022-11-14T09:58:05.224Z,7.20
2022-11-14T10:01:03.862Z,7.10
2022-11-14T10:03:55.334Z,7.10
2022-11-14T10:06:58.940Z,7.10
2022-11-14T10:09:54.575Z,7.20
2022-11-14T10:12:49.173Z,7.20
2022-11-14T10:15:20.093Z,7.30
2022-11-14T10:18:25.860Z,7.10
2022-11-14T10:21:02.593Z,7.20
2022-11-14T10:23:33.475Z,7.30
2022-11-14T10:26:24.644Z,7.30
2022-11-14T10:29:00.176Z,7.40
2022-11-14T10:31:34.646Z,7.40
2022-11-14T10:34:14.239Z,7.40
2022-11-14T10:37:17.383Z,7.40
2022-11-14T10:39:54.878Z,7.50
2022-11-14T10:42:29.756Z,7.60
2022-11-14T10:45:19.529Z,7.50
2022-11-14T10:47:59.044Z,7.60
2022-11-14T10:50:33.291Z,7.60
2022-11-14T10:53:05.913Z,7.60
2022-11-14T10:58:20.106Z,7.80
2022-11-14T11:00:47.025Z,7.80
2022-11-14T11:03:13.791Z,7.90
2022-11-14T11:05:57.975Z,7.90
2022-11-14T11:08:44.474Z,7.90
2022-11-14T11:11:31.334Z,7.90
2022-11-14T11:14:01.085Z,8.00
2022-11-14T11:16:29.746Z,8.00
2022-11-14T11:19:32.222Z,8.10
2022-11-14T11:22:01.807Z,8.20
2022-11-14T11:24:37.068Z,8.20
2022-11-14T11:27:20.306Z,8.30
2022-11-14T11:30:20.708Z,8.40
2022-11-14T11:32:47.450Z,8.40
2022-11-14T11:35:23.646Z,8.40
2022-11-14T11:37:56.972Z,8.50
2022-11-14T11:40:31.748Z,8.50
2022-11-14T11:43:37.967Z,8.50
2022-11-14T11:46:30.957Z,8.50
2022-11-14T11:49:12.420Z,8.60
2022-11-14T11:51:42.141Z,8.60
2022-11-14T11:54:22.616Z,8.60
2022-11-14T11:56:55.060Z,8.60
2022-11-14T11:59:38.938Z,8.70
2022-11-14T12:02:23.413Z,8.70
2022-11-14T12:04:52.766Z,8.70
2022-11-14T12:07:40.550Z,8.70
2022-11-14T12:10:21.960Z,8.80
2022-11-14T12:13:22.020Z,8.80
2022-11-14T12:16:13.036Z,8.90
2022-11-14T12:19:30.745Z,8.90
2022-11-14T12:22:29.272Z,9.00
2022-11-14T12:25:23.077Z,9.00
2022-11-14T12:28:13.087Z,9.10
2022-11-14T12:30:42.571Z,9.20
2022-11-14T12:33:23.415Z,9.30
2022-11-14T12:35:54.901Z,9.30
2022-11-14T12:38:22.776Z,9.40
2022-11-14T12:40:56.652Z,9.40
2022-11-14T12:43:38.335Z,9.50
2022-11-14T12:46:13.098Z,9.50
2022-11-14T12:48:45.103Z,9.50
2022-11-14T12:51:28.412Z,9.60
2022-11-14T12:53:58.115Z,9.60
2022-11-14T12:56:31.012Z,9.60
2022-11-14T12:59:35.952Z,9.70
2022-11-14T13:02:26.063Z,9.70
2022-11-14T13:05:22.422Z,9.80
2022-11-14T13:08:13.528Z,9.90
2022-11-14T13:10:41.033Z,10.00
2022-11-14T13:16:50.209Z,10.10
2022-11-14T13:19:44.168Z,10.20
2022-11-14T13:22:15.014Z,10.20
2022-11-14T13:25:00.388Z,10.20
2022-11-14T13:28:05.956Z,10.30
2022-11-14T13:31:01.783Z,10.20
2022-11-14T13:33:44.850Z,10.30
2022-11-14T13:36:36.946Z,10.30
2022-11-14T13:39:31.968Z,10.30
2022-11-14T13:42:13.604Z,10.40
2022-11-14T13:45:14.596Z,10.40
2022-11-14T13:48:19.039Z,10.50
2022-11-14T13:50:52.037Z,10.50
2022-11-14T13:53:24.598Z,10.50
2022-11-14T13:56:04.924Z,10.70
2022-11-14T13:58:39.718Z,10.60
2022-11-14T14:01:44.876Z,10.60
2022-11-14T14:04:43.997Z,10.80
2022-11-14T14:07:50.771Z,10.70
2022-11-14T14:10:32.564Z,10.90
2022-11-14T14:13:22.419Z,11.00
2022-11-14T14:16:04.342Z,11.10
2022-11-14T14:18:49.251Z,11.10
2022-11-14T14:21:38.845Z,11.30
2022-11-14T14:24:35.921Z,11.40
2022-11-14T14:27:17.216Z,11.50
2022-11-14T14:30:03.691Z,11.50
2022-11-14T14:32:30.730Z,11.60
2022-11-14T14:35:00.523Z,11.50
2022-11-14T14:37:29.352Z,11.50
2022-11-14T14:40:01.893Z,11.60
2022-11-14T14:42:38.445Z,11.60
2022-11-14T14:45:13.600Z,11.50
2022-11-14T14:47:42.373Z,11.50
2022-11-14T14:50:22.620Z,11.60
2022-11-14T14:53:00.808Z,11.50
2022-11-14T14:55:33.652Z,11.50
2022-11-14T14:58:30.275Z,11.50
2022-11-14T15:00:57.037Z,11.50
2022-11-14T15:03:26.286Z,11.50
2022-11-14T15:06:05.107Z,11.40
2022-11-14T15:08:37.025Z,11.40
2022-11-14T15:11:04.321Z,11.50
2022-11-14T15:13:31.489Z,11.50
2022-11-14T15:15:58.528Z,11.50
2022-11-14T15:18:27.075Z,11.40
2022-11-14T15:21:24.894Z,11.40
2022-11-14T15:24:03.278Z,11.40
2022-11-14T15:26:31.635Z,11.40
2022-11-14T15:29:20.318Z,11.30
2022-11-14T15:31:57.108Z,11.30
2022-11-14T15:34:25.222Z,11.30
2022-11-14T15:37:08.451Z,11.30
2022-11-14T15:39:35.186Z,11.30
2022-11-14T15:42:23.541Z,11.30
2022-11-14T15:44:51.156Z,11.30
2022-11-14T15:47:38.733Z,11.30
2022-11-14T15:50:11.648Z,11.30
2022-11-14T15:52:48.824Z,11.30
2022-11-14T15:55:18.607Z,11.30
2022-11-14T15:57:48.383Z,11.30
2022-11-14T16:00:22.946Z,11.30
2022-11-14T16:02:57.570Z,11.30
2022-11-14T16:05:29.796Z,11.30
2022-11-14T16:07:57.029Z,11.30
2022-11-14T16:10:26.135Z,11.30
2022-11-14T16:12:53.064Z,11.30
2022-11-14T16:15:21.275Z,11.20
2022-11-14T16:17:50.113Z,11.10
2022-11-14T16:20:22.426Z,11.10
2022-11-14T16:22:50.426Z,11.10
2022-11-14T16:25:20.014Z,11.00
2022-11-14T16:27:47.096Z,11.00
2022-11-14T16:30:15.976Z,10.90
2022-11-14T16:32:47.232Z,10.90
2022-11-14T16:35:22.103Z,11.00
2022-11-14T16:37:49.199Z,10.90
2022-11-14T16:40:25.611Z,10.90
2022-11-14T16:42:54.954Z,10.90
2022-11-14T16:45:22.015Z,10.80
2022-11-14T16:47:49.841Z,10.80
2022-11-14T16:50:17.880Z,10.80
2022-11-14T16:52:44.656Z,10.80
2022-11-14T16:55:11.854Z,10.60
2022-11-14T16:57:38.828Z,10.50
2022-11-14T17:00:08.009Z,10.50
2022-11-14T17:02:34.775Z,10.50
2022-11-14T17:05:01.491Z,10.50
2022-11-14T17:07:32.687Z,10.40
2022-11-14T17:10:02.990Z,10.40
2022-11-14T17:12:29.930Z,10.40
2022-11-14T17:14:56.690Z,10.40
2022-11-14T17:17:23.374Z,10.40
2022-11-14T17:19:50.292Z,10.50
2022-11-14T17:22:18.506Z,10.50
2022-11-14T17:24:45.173Z,10.50
2022-11-14T17:27:13.054Z,10.40
2022-11-14T17:29:39.896Z,10.50
2022-11-14T17:32:06.713Z,10.40
2022-11-14T17:34:33.532Z,10.40
2022-11-14T17:37:00.184Z,10.50
2022-11-14T17:39:27.054Z,10.50
2022-11-14T17:41:53.833Z,10.40
2022-11-14T17:44:20.646Z,10.40
2022-11-14T17:46:47.814Z,10.40
2022-11-14T17:49:14.478Z,10.50
2022-11-14T17:51:41.138Z,10.60
2022-11-14T17:54:08.941Z,10.60
2022-11-14T17:56:35.667Z,10.50
2022-11-14T17:59:03.131Z,10.50
2022-11-14T18:01:31.426Z,10.40
2022-11-14T18:04:03.023Z,10.40
2022-11-14T18:06:33.529Z,10.40
2022-11-14T18:09:04.796Z,10.40
2022-11-14T18:11:32.242Z,10.40
2022-11-14T18:13:59.050Z,10.30
2022-11-14T18:16:31.338Z,10.20
2022-11-14T18:19:02.199Z,10.20
2022-11-14T18:21:29.203Z,10.20
2022-11-14T18:23:58.103Z,10.20
2022-11-14T18:26:27.947Z,10.30
2022-11-14T18:28:59.508Z,10.20
2022-11-14T18:31:26.381Z,10.20
2022-11-14T18:33:53.389Z,10.20
2022-11-14T18:36:20.631Z,10.20
2022-11-14T18:38:47.517Z,10.20
2022-11-14T18:41:16.593Z,10.20
2022-11-14T18:43:44.537Z,10.20
2022-11-14T18:46:12.613Z,10.20
2022-11-14T18:48:40.780Z,10.20
2022-11-14T18:51:12.192Z,10.20
2022-11-14T18:53:38.911Z,10.20
2022-11-14T18:56:11.485Z,10.20
2022-11-14T18:58:39.872Z,10.20
2022-11-14T19:01:16.969Z,10.20
2022-11-14T19:03:43.841Z,10.20
2022-11-14T19:06:12.091Z,10.20
2022-11-14T19:08:39.724Z,10.10
2022-11-14T19:11:30.996Z,10.10
2022-11-14T19:14:01.373Z,10.10
2022-11-14T19:16:28.171Z,10.10
2022-11-14T19:18:55.675Z,10.10
2022-11-14T19:21:22.340Z,10.00
2022-11-14T19:23:50.486Z,10.00
2022-11-14T19:26:17.390Z,10.00
2022-11-14T19:28:44.173Z,9.90
2022-11-14T19:31:11.054Z,9.90
2022-11-14T19:33:41.769Z,9.90
2022-11-14T19:36:11.952Z,9.90
2022-11-14T19:38:38.734Z,9.90
2022-11-14T19:41:14.872Z,9.80
2022-11-14T19:43:43.457Z,9.80
2022-11-14T19:46:10.615Z,9.80
2022-11-14T19:48:38.390Z,9.70
2022-11-14T19:51:14.023Z,9.70
2022-11-14T19:53:41.372Z,9.80
2022-11-14T19:56:10.567Z,9.80
2022-11-14T19:58:38.598Z,9.80
2022-11-14T20:01:07.714Z,9.80
2022-11-14T20:03:35.247Z,9.80
2022-11-14T20:06:03.304Z,9.90
2022-11-14T20:08:30.055Z,9.80
2022-11-14T20:11:01.940Z,9.80
2022-11-14T20:13:33.722Z,9.80
2022-11-14T20:16:00.699Z,9.80
2022-11-14T20:18:29.699Z,9.70
2022-11-14T20:20:58.514Z,9.70
2022-11-14T20:23:25.526Z,9.60
2022-11-14T20:25:52.870Z,9.60
2022-11-14T20:28:19.694Z,9.60
2022-11-14T20:30:46.532Z,9.60
2022-11-14T20:33:13.309Z,9.60
2022-11-14T20:35:40.144Z,9.50
2022-11-14T20:38:07.510Z,9.40
2022-11-14T20:40:34.650Z,9.30
2022-11-14T20:43:01.498Z,9.20
2022-11-14T20:45:28.229Z,9.20
2022-11-14T20:47:55.340Z,9.20
2022-11-14T20:50:22.083Z,9.20
2022-11-14T20:52:49.167Z,9.20
2022-11-14T20:55:16.015Z,9.20
2022-11-14T20:57:42.831Z,9.10
2022-11-14T21:00:10.091Z,9.00
2022-11-14T21:02:36.902Z,9.00
2022-11-14T21:05:03.848Z,9.00
2022-11-14T21:07:30.627Z,9.00
2022-11-14T21:10:15.981Z,8.80
2022-11-14T21:12:46.954Z,8.80
2022-11-14T21:15:16.262Z,8.80
2022-11-14T21:17:42.946Z,8.80
2022-11-14T21:20:10.100Z,8.80
2022-11-14T21:22:36.766Z,8.80
2022-11-14T21:25:03.915Z,8.80
2022-11-14T21:27:31.773Z,8.80
2022-11-14T21:29:58.487Z,8.70
2022-11-14T21:32:25.185Z,8.70
2022-11-14T21:34:51.990Z,8.80
2022-11-14T21:37:18.813Z,8.90
2022-11-14T21:39:48.155Z,8.90
2022-11-14T21:42:18.430Z,9.00
2022-11-14T21:44:45.696Z,9.00
2022-11-14T21:47:12.416Z,9.00
2022-11-14T21:49:39.064Z,8.90
2022-11-14T21:52:05.954Z,8.90
2022-11-14T21:54:32.634Z,8.80
2022-11-14T21:56:59.293Z,8.80
2022-11-14T21:59:28.160Z,8.80
2022-11-14T22:02:13.425Z,8.70
2022-11-14T22:04:40.482Z,8.70
2022-11-14T22:07:08.387Z,8.80
2022-11-14T22:09:36.388Z,8.80
2022-11-14T22:12:05.872Z,8.90
2022-11-14T22:14:32.553Z,8.90
2022-11-14T22:16:59.270Z,8.80
2022-11-14T22:19:26.146Z,8.70
2022-11-14T22:21:54.206Z,8.70
2022-11-14T22:24:21.014Z,8.60
2022-11-14T22:26:47.790Z,8.60
2022-11-14T22:29:14.530Z,8.60
2022-11-14T22:31:41.379Z,8.60
2022-11-14T22:34:08.301Z,8.70
2022-11-14T22:36:35.915Z,8.80
2022-11-14T22:39:02.731Z,8.90
2022-11-14T22:41:33.746Z,8.90
2022-11-14T22:44:01.361Z,9.00
2022-11-14T22:46:29.532Z,8.90
2022-11-14T22:48:56.215Z,8.90
2022-11-14T22:51:25.320Z,8.90
2022-11-14T22:53:54.591Z,8.90
2022-11-14T22:56:23.957Z,8.90
2022-11-14T22:58:51.190Z,8.90
2022-11-14T23:01:23.316Z,9.00
2022-11-14T23:03:55.088Z,9.10
2022-11-14T23:06:22.970Z,9.10
2022-11-14T23:08:50.013Z,9.10
2022-11-14T23:11:28.746Z,9.10
2022-11-14T23:13:56.796Z,9.20
2022-11-14T23:16:25.915Z,9.20
2022-11-14T23:18:55.430Z,9.10
2022-11-14T23:21:24.947Z,9.10
2022-11-14T23:23:59.507Z,9.10
2022-11-14T23:26:27.626Z,9.10
2022-11-14T23:28:54.989Z,9.10
2022-11-14T23:31:22.048Z,9.10
2022-11-14T23:33:50.663Z,9.20
2022-11-14T23:36:17.874Z,9.20
2022-11-14T23:38:44.885Z,9.20
2022-11-14T23:41:18.076Z,9.20
2022-11-14T23:43:45.398Z,9.20
2022-11-14T23:46:12.526Z,9.20
2022-11-14T23:48:39.314Z,9.20
2022-11-14T23:51:06.280Z,9.20
2022-11-14T23:53:33.439Z,9.20
2022-11-14T23:56:02.009Z,9.20
2022-11-14T23:58:30.249Z,9.20
